Rabat, Morocco
Current Conditions -  °F | °C
As of 7:30 PM on Thursday 30 Oct 2014 (Local Time) from GMME Reporting Station
Few Clouds Few Clouds  
Wind Chill: 73°   Ceiling: Unl
Heat Index: 73°   Visibility: 5mi
Dew Point: 54°   Wind: 3mph
Humidity: 50%   Direction: 70°ENE
Pressure: 29.94"   Gusts: NA
Location:  34.02°N, 6.84°W
Report Text: GMME 301830Z 07003KT 040V110 8000 FEW015 23/12 Q1014 NOSIG
Loading
Personal Weather Stations






























Interactive Weather Map
Tropical Storm Tracking
New forecast layout! Learn more

10-Day Weather Forecast

Advertisements
Track Severe Weather on mobile